Airport View

Enter AWOS ICAO identifier for current METAR.

ex. KFNL

KMQS 080735Z AUTO 29005KT 4SM -RA BKN007 BKN032 OVC049 13/13 A2956 RMK AO2

8 Apr 2020 07:45

Frequency: 126.25

Phone: 610-384-6132

Other Area AWOS: KPTW - KLNS - KILG - KRDG

TAF AMD KLNS 080712Z 0807/0906 24005KT 5SM -TSRA BKN050CB TEMPO 0807/0809 34015G20KT 2SM +TSRA OVC025CB FM081000 28008KT 4SM -TSRA OVC035CB FM081100 30007KT P6SM -SHRA OVC035 FM081300 30008KT P6SM OVC040 FM081800 30015G20KT P6SM SCT050 FM082300 31007KT P6SM SKC